Terminal Aerodrome Forecast
Issued by NWS Fort Wayne, IN

Home | Current Version | Previous Version | Text Only | Print | Product List | Glossary On
Versions: 1 2 3 4 5 6 7 8 9 10 11 12 13 14 15 16 17 18 19
000
FTUS43 KIWX 182300 RRA
TAFFWA
TAF
KFWA 182339Z 1900/1924 08013G22KT P6SM SCT070 BKN250
     FM190130 08012KT P6SM SCT070 BKN250
     FM190500 07012KT P6SM BKN150 WS015/11040KT
     FM191300 09016G24KT P6SM OVC035
     FM191900 11018G25KT 6SM RA OVC010=

USA.gov is the U.S. government's official web portal to all federal, state and local government web resources and services.